Isle of Arran, United Kingdom
Current Conditions -  °F | °C
As of 9:50 AM on Monday 22 Dec 2014 (Local Time) from EGPK Reporting Station
Rain Showers Rain Showers  
Wind Chill:   Ceiling: 3800
Heat Index:   Visibility: 6mi
Dew Point:   Wind: 7mph
Humidity: 87%   Direction: 240°WSW
Pressure: 29.68"   Gusts: NA
Location:  55.58°N, 5.15°W
Report Text: EGPK 220950Z 24006KT 9000 -SHRA FEW009 SCT025 BKN038 09/07 Q1005
Loading
Personal Weather Stations






























Interactive Weather Map New forecast layout! Learn more

10-Day Weather Forecast

Advertisements
Track Severe Weather on mobile